Mc Clelland, Iowa
Current Conditions -  °F | °C
As of 10:35 AM on Thursday 23 Oct 2014 (Local Time) from KCBF Reporting Station
Haze Haze  
Wind Chill: 61°   Ceiling: 1300
Heat Index: 61°   Visibility: 6mi
Dew Point: 61°   Wind: 6mph
Humidity: 100%   Direction: 280°W
Pressure: 30.06"   Gusts: NA
Location:  41.3329°N, 95.6819°W
Report Text: KCBF 231535Z AUTO 28005KT 6SM BR SCT008 BKN013 16/16 A3006 RMK AO2
Loading
Personal Weather Stations






























Interactive Weather Map
Tropical Storm Tracking
New forecast layout! Learn more

10-Day Weather Forecast

Advertisements
Track Severe Weather on mobile